sensor_id;sensor_type;location;lat;lon;timestamp;pressure;altitude;pressure_sealevel;temperature;humidity
68525;BME280;55524;51.380;13.372;2023-04-28T00:00:50;100874.56;;;4.24;85.19
68525;BME280;55524;51.380;13.372;2023-04-28T00:03:16;100874.56;;;4.21;84.87
68525;BME280;55524;51.380;13.372;2023-04-28T00:05:42;100870.22;;;4.22;84.66
68525;BME280;55524;51.380;13.372;2023-04-28T00:08:09;100864.97;;;4.22;84.52
68525;BME280;55524;51.380;13.372;2023-04-28T00:10:35;100871.06;;;4.24;84.04
68525;BME280;55524;51.380;13.372;2023-04-28T00:13:01;100861.47;;;4.26;83.48
68525;BME280;55524;51.380;13.372;2023-04-28T00:15:28;100864.09;;;4.26;83.91
68525;BME280;55524;51.380;13.372;2023-04-28T00:17:54;100855.41;;;4.21;84.04
68525;BME280;55524;51.380;13.372;2023-04-28T00:20:21;100865.00;;;4.20;85.81
68525;BME280;55524;51.380;13.372;2023-04-28T00:22:47;100855.38;;;4.19;85.21
68525;BME280;55524;51.380;13.372;2023-04-28T00:25:15;100841.44;;;4.18;84.46
68525;BME280;55524;51.380;13.372;2023-04-28T00:27:41;100837.97;;;4.21;83.83
68525;BME280;55524;51.380;13.372;2023-04-28T00:30:08;100829.19;;;4.27;83.43
68525;BME280;55524;51.380;13.372;2023-04-28T00:32:34;100837.91;;;4.27;83.53
68525;BME280;55524;51.380;13.372;2023-04-28T00:35:02;100838.78;;;4.26;83.92
68525;BME280;55524;51.380;13.372;2023-04-28T00:37:28;100823.09;;;4.29;82.66
68525;BME280;55524;51.380;13.372;2023-04-28T00:39:57;100816.13;;;4.30;82.89
68525;BME280;55524;51.380;13.372;2023-04-28T00:42:23;100812.63;;;4.29;82.68
68525;BME280;55524;51.380;13.372;2023-04-28T00:44:50;100814.38;;;4.29;83.16
68525;BME280;55524;51.380;13.372;2023-04-28T00:47:17;100808.25;;;4.33;82.94
68525;BME280;55524;51.380;13.372;2023-04-28T00:49:44;100803.00;;;4.34;82.08
68525;BME280;55524;51.380;13.372;2023-04-28T00:52:12;100804.75;;;4.31;82.15
68525;BME280;55524;51.380;13.372;2023-04-28T00:54:39;100803.91;;;4.30;82.43
68525;BME280;55524;51.380;13.372;2023-04-28T00:57:07;100799.53;;;4.31;82.82
68525;BME280;55524;51.380;13.372;2023-04-28T00:59:34;100799.53;;;4.32;82.24
68525;BME280;55524;51.380;13.372;2023-04-28T01:02:02;100796.03;;;4.30;82.54
68525;BME280;55524;51.380;13.372;2023-04-28T01:04:29;100807.41;;;4.26;83.61
68525;BME280;55524;51.380;13.372;2023-04-28T01:06:56;100806.56;;;4.23;83.80
68525;BME280;55524;51.380;13.372;2023-04-28T01:09:23;100810.94;;;4.21;84.67
68525;BME280;55524;51.380;13.372;2023-04-28T01:11:49;100808.34;;;4.14;85.27
68525;BME280;55524;51.380;13.372;2023-04-28T01:14:16;100805.78;;;4.08;84.65
68525;BME280;55524;51.380;13.372;2023-04-28T01:16:42;100803.16;;;4.05;85.34
68525;BME280;55524;51.380;13.372;2023-04-28T01:19:16;100810.13;;;4.03;85.38
68525;BME280;55524;51.380;13.372;2023-04-28T01:21:45;100797.94;;;3.99;85.81
68525;BME280;55524;51.380;13.372;2023-04-28T01:24:11;100791.88;;;3.95;85.76
68525;BME280;55524;51.380;13.372;2023-04-28T01:26:38;100796.22;;;3.98;84.53
68525;BME280;55524;51.380;13.372;2023-04-28T01:29:04;100797.94;;;4.04;84.29
68525;BME280;55524;51.380;13.372;2023-04-28T01:31:30;100791.81;;;4.06;83.73
68525;BME280;55524;51.380;13.372;2023-04-28T01:33:57;100790.94;;;4.09;83.20
68525;BME280;55524;51.380;13.372;2023-04-28T01:36:25;100792.72;;;4.05;83.82
68525;BME280;55524;51.380;13.372;2023-04-28T01:38:53;100787.50;;;4.02;84.19
68525;BME280;55524;51.380;13.372;2023-04-28T01:41:20;100792.75;;;3.98;84.43
68525;BME280;55524;51.380;13.372;2023-04-28T01:43:47;100785.78;;;3.93;84.57
68525;BME280;55524;51.380;13.372;2023-04-28T01:46:13;100788.44;;;3.92;85.00
68525;BME280;55524;51.380;13.372;2023-04-28T01:48:39;100782.31;;;3.93;84.86
68525;BME280;55524;51.380;13.372;2023-04-28T01:51:06;100779.72;;;3.88;85.49
68525;BME280;55524;51.380;13.372;2023-04-28T01:53:32;100776.22;;;3.89;85.43
68525;BME280;55524;51.380;13.372;2023-04-28T01:55:59;100773.63;;;3.85;85.59
68525;BME280;55524;51.380;13.372;2023-04-28T01:58:25;100762.28;;;3.90;84.74
68525;BME280;55524;51.380;13.372;2023-04-28T02:00:51;100752.66;;;3.94;83.99
68525;BME280;55524;51.380;13.372;2023-04-28T02:03:17;100758.75;;;3.94;84.16
68525;BME280;55524;51.380;13.372;2023-04-28T02:05:44;100759.63;;;3.98;84.22
68525;BME280;55524;51.380;13.372;2023-04-28T02:08:10;100763.13;;;3.94;84.08
68525;BME280;55524;51.380;13.372;2023-04-28T02:10:36;100762.28;;;3.89;84.36
68525;BME280;55524;51.380;13.372;2023-04-28T02:13:03;100764.00;;;3.93;84.37
68525;BME280;55524;51.380;13.372;2023-04-28T02:15:29;100764.03;;;3.84;84.96
68525;BME280;55524;51.380;13.372;2023-04-28T02:17:55;100764.97;;;3.74;86.30
68525;BME280;55524;51.380;13.372;2023-04-28T02:20:21;100758.03;;;3.73;87.35
68525;BME280;55524;51.380;13.372;2023-04-28T02:22:48;100756.28;;;3.70;87.38
68525;BME280;55524;51.380;13.372;2023-04-28T02:25:14;100758.91;;;3.64;87.82
68525;BME280;55524;51.380;13.372;2023-04-28T02:27:40;100758.06;;;3.60;88.13
68525;BME280;55524;51.380;13.372;2023-04-28T02:30:07;100754.56;;;3.58;88.94
68525;BME280;55524;51.380;13.372;2023-04-28T02:32:34;100751.09;;;3.56;88.99
68525;BME280;55524;51.380;13.372;2023-04-28T02:35:00;100758.06;;;3.57;89.75
68525;BME280;55524;51.380;13.372;2023-04-28T02:37:26;100749.34;;;3.55;89.63
68525;BME280;55524;51.380;13.372;2023-04-28T02:39:53;100747.66;;;3.53;89.92
68525;BME280;55524;51.380;13.372;2023-04-28T02:42:19;100753.75;;;3.53;89.94
68525;BME280;55524;51.380;13.372;2023-04-28T02:44:45;100752.84;;;3.54;90.28
68525;BME280;55524;51.380;13.372;2023-04-28T02:47:12;100746.75;;;3.51;90.97
68525;BME280;55524;51.380;13.372;2023-04-28T02:49:38;100745.03;;;3.48;90.66
68525;BME280;55524;51.380;13.372;2023-04-28T02:52:04;100750.25;;;3.48;90.46
68525;BME280;55524;51.380;13.372;2023-04-28T02:54:31;100742.41;;;3.48;90.58
68525;BME280;55524;51.380;13.372;2023-04-28T02:56:59;100738.91;;;3.52;89.87
68525;BME280;55524;51.380;13.372;2023-04-28T02:59:26;100733.69;;;3.55;90.13
68525;BME280;55524;51.380;13.372;2023-04-28T03:01:52;100742.38;;;3.60;89.73
68525;BME280;55524;51.380;13.372;2023-04-28T03:04:18;100745.84;;;3.62;90.58
68525;BME280;55524;51.380;13.372;2023-04-28T03:06:45;100731.94;;;3.54;90.63
68525;BME280;55524;51.380;13.372;2023-04-28T03:09:12;100727.56;;;3.56;91.66
68525;BME280;55524;51.380;13.372;2023-04-28T03:11:38;100721.50;;;3.54;92.12
68525;BME280;55524;51.380;13.372;2023-04-28T03:14:05;100712.78;;;3.55;91.13
68525;BME280;55524;51.380;13.372;2023-04-28T03:16:31;100710.16;;;3.55;90.88
68525;BME280;55524;51.380;13.372;2023-04-28T03:18:58;100712.78;;;3.55;90.93
68525;BME280;55524;51.380;13.372;2023-04-28T03:21:25;100705.81;;;3.51;91.46
68525;BME280;55524;51.380;13.372;2023-04-28T03:23:53;100704.94;;;3.55;91.10
68525;BME280;55524;51.380;13.372;2023-04-28T03:26:19;100704.09;;;3.52;91.88
68525;BME280;55524;51.380;13.372;2023-04-28T03:28:46;100694.50;;;3.51;92.56
68525;BME280;55524;51.380;13.372;2023-04-28T03:31:12;100698.00;;;3.50;92.77
68525;BME280;55524;51.380;13.372;2023-04-28T03:33:38;100694.56;;;3.44;92.60
68525;BME280;55524;51.380;13.372;2023-04-28T03:36:05;100695.41;;;3.43;93.13
68525;BME280;55524;51.380;13.372;2023-04-28T03:38:31;100692.81;;;3.45;93.87
68525;BME280;55524;51.380;13.372;2023-04-28T03:40:58;100700.66;;;3.45;93.66
68525;BME280;55524;51.380;13.372;2023-04-28T03:43:24;100703.25;;;3.45;94.73
68525;BME280;55524;51.380;13.372;2023-04-28T03:45:50;100711.94;;;3.47;95.23
68525;BME280;55524;51.380;13.372;2023-04-28T03:48:17;100701.50;;;3.45;95.45
68525;BME280;55524;51.380;13.372;2023-04-28T03:50:43;100703.25;;;3.43;95.38
68525;BME280;55524;51.380;13.372;2023-04-28T03:53:10;100703.25;;;3.42;96.18
68525;BME280;55524;51.380;13.372;2023-04-28T03:55:37;100696.31;;;3.41;96.23
68525;BME280;55524;51.380;13.372;2023-04-28T03:58:03;100685.84;;;3.42;95.78
68525;BME280;55524;51.380;13.372;2023-04-28T04:00:30;100684.97;;;3.42;95.49
68525;BME280;55524;51.380;13.372;2023-04-28T04:02:56;100680.63;;;3.45;96.08
68525;BME280;55524;51.380;13.372;2023-04-28T04:05:22;100681.47;;;3.49;96.65
68525;BME280;55524;51.380;13.372;2023-04-28T04:07:49;100672.72;;;3.52;96.06
68525;BME280;55524;51.380;13.372;2023-04-28T04:10:15;100668.38;;;3.55;96.45
68525;BME280;55524;51.380;13.372;2023-04-28T04:12:41;100660.50;;;3.58;95.73
68525;BME280;55524;51.380;13.372;2023-04-28T04:15:08;100658.78;;;3.56;95.66
68525;BME280;55524;51.380;13.372;2023-04-28T04:17:35;100651.84;;;3.53;94.95
68525;BME280;55524;51.380;13.372;2023-04-28T04:20:01;100643.91;;;3.64;94.86
68525;BME280;55524;51.380;13.372;2023-04-28T04:22:28;100650.84;;;3.71;94.40
68525;BME280;55524;51.380;13.372;2023-04-28T04:24:54;100645.59;;;3.79;95.28
68525;BME280;55524;51.380;13.372;2023-04-28T04:27:20;100643.03;;;3.73;94.22
68525;BME280;55524;51.380;13.372;2023-04-28T04:29:47;100635.97;;;3.84;94.02
68525;BME280;55524;51.380;13.372;2023-04-28T04:32:13;100642.03;;;3.87;94.17
68525;BME280;55524;51.380;13.372;2023-04-28T04:34:40;100634.25;;;3.81;93.66
68525;BME280;55524;51.380;13.372;2023-04-28T04:37:06;100640.31;;;3.85;93.34
68525;BME280;55524;51.380;13.372;2023-04-28T04:39:32;100639.38;;;3.95;93.23
68525;BME280;55524;51.380;13.372;2023-04-28T04:41:58;100630.72;;;3.84;91.86
68525;BME280;55524;51.380;13.372;2023-04-28T04:44:25;100631.53;;;3.97;90.96
68525;BME280;55524;51.380;13.372;2023-04-28T04:46:51;100634.03;;;4.07;91.95
68525;BME280;55524;51.380;13.372;2023-04-28T04:49:18;100631.47;;;4.00;91.25
68525;BME280;55524;51.380;13.372;2023-04-28T04:51:44;100631.47;;;4.06;90.84
68525;BME280;55524;51.380;13.372;2023-04-28T04:54:11;100628.69;;;4.23;90.56
68525;BME280;55524;51.380;13.372;2023-04-28T04:56:37;100632.09;;;4.31;89.71
68525;BME280;55524;51.380;13.372;2023-04-28T04:59:03;100631.13;;;4.44;90.77
68525;BME280;55524;51.380;13.372;2023-04-28T05:01:30;100628.41;;;4.55;91.30
68525;BME280;55524;51.380;13.372;2023-04-28T05:03:56;100625.78;;;4.55;89.38
68525;BME280;55524;51.380;13.372;2023-04-28T05:06:22;100617.94;;;4.56;88.42
68525;BME280;55524;51.380;13.372;2023-04-28T05:08:48;100617.16;;;4.45;88.55
68525;BME280;55524;51.380;13.372;2023-04-28T05:11:15;100609.38;;;4.40;88.28
68525;BME280;55524;51.380;13.372;2023-04-28T05:13:41;100610.00;;;4.62;89.42
68525;BME280;55524;51.380;13.372;2023-04-28T05:16:07;100596.00;;;4.66;88.94
68525;BME280;55524;51.380;13.372;2023-04-28T05:18:34;100602.09;;;4.68;89.36
68525;BME280;55524;51.380;13.372;2023-04-28T05:21:00;100594.16;;;4.75;88.99
68525;BME280;55524;51.380;13.372;2023-04-28T05:23:27;100589.66;;;4.89;89.21
68525;BME280;55524;51.380;13.372;2023-04-28T05:25:53;100592.19;;;4.97;88.98
68525;BME280;55524;51.380;13.372;2023-04-28T05:28:20;100590.50;;;4.91;89.32
68525;BME280;55524;51.380;13.372;2023-04-28T05:30:47;100585.00;;;5.12;89.06
68525;BME280;55524;51.380;13.372;2023-04-28T05:33:13;100584.00;;;5.23;88.83
68525;BME280;55524;51.380;13.372;2023-04-28T05:35:39;100585.56;;;5.36;89.09
68525;BME280;55524;51.380;13.372;2023-04-28T05:38:06;100577.66;;;5.37;88.76
68525;BME280;55524;51.380;13.372;2023-04-28T05:40:32;100581.91;;;5.48;89.44
68525;BME280;55524;51.380;13.372;2023-04-28T05:42:58;100577.41;;;5.54;88.22
68525;BME280;55524;51.380;13.372;2023-04-28T05:45:25;100580.03;;;5.56;88.54
68525;BME280;55524;51.380;13.372;2023-04-28T05:47:51;100574.88;;;5.51;88.28
68525;BME280;55524;51.380;13.372;2023-04-28T05:50:17;100574.91;;;5.48;88.16
68525;BME280;55524;51.380;13.372;2023-04-28T05:52:44;100572.88;;;5.65;87.76
68525;BME280;55524;51.380;13.372;2023-04-28T05:55:10;100567.59;;;5.68;87.79
68525;BME280;55524;51.380;13.372;2023-04-28T05:57:36;100565.66;;;5.81;87.93
68525;BME280;55524;51.380;13.372;2023-04-28T06:00:03;100562.03;;;5.88;86.36
68525;BME280;55524;51.380;13.372;2023-04-28T06:02:30;100560.19;;;5.98;85.97
68525;BME280;55524;51.380;13.372;2023-04-28T06:04:56;100550.22;;;6.17;84.47
68525;BME280;55524;51.380;13.372;2023-04-28T06:07:22;100548.28;;;6.28;84.40
68525;BME280;55524;51.380;13.372;2023-04-28T06:09:48;100547.66;;;6.62;84.49
68525;BME280;55524;51.380;13.372;2023-04-28T06:12:15;100545.09;;;7.01;84.35
68525;BME280;55524;51.380;13.372;2023-04-28T06:14:41;100534.09;;;7.24;81.94
68525;BME280;55524;51.380;13.372;2023-04-28T06:17:08;100542.84;;;7.63;82.72
68525;BME280;55524;51.380;13.372;2023-04-28T06:19:34;100521.19;;;7.87;79.35
68525;BME280;55524;51.380;13.372;2023-04-28T06:22:00;100509.28;;;8.07;77.06
68525;BME280;55524;51.380;13.372;2023-04-28T06:24:27;100479.78;;;8.28;74.81
68525;BME280;55524;51.380;13.372;2023-04-28T06:26:54;100475.78;;;8.46;72.74
68525;BME280;55524;51.380;13.372;2023-04-28T06:29:20;100487.25;;;8.75;74.06
68525;BME280;55524;51.380;13.372;2023-04-28T06:31:48;100465.16;;;8.80;72.32
68525;BME280;55524;51.380;13.372;2023-04-28T06:34:15;100456.63;;;9.00;72.10
68525;BME280;55524;51.380;13.372;2023-04-28T06:36:41;100463.16;;;9.17;71.76
68525;BME280;55524;51.380;13.372;2023-04-28T06:39:07;100453.94;;;9.30;71.82
68525;BME280;55524;51.380;13.372;2023-04-28T06:41:34;100466.41;;;9.53;72.20
68525;BME280;55524;51.380;13.372;2023-04-28T06:44:00;100459.81;;;9.66;71.46
68525;BME280;55524;51.380;13.372;2023-04-28T06:46:27;100424.44;;;9.72;67.57
68525;BME280;55524;51.380;13.372;2023-04-28T06:48:53;100396.69;;;9.85;64.70
68525;BME280;55524;51.380;13.372;2023-04-28T06:51:19;100399.31;;;9.85;64.44
68525;BME280;55524;51.380;13.372;2023-04-28T06:53:45;100411.31;;;9.95;65.38
68525;BME280;55524;51.380;13.372;2023-04-28T06:56:12;100399.19;;;10.13;65.00
68525;BME280;55524;51.380;13.372;2023-04-28T06:58:39;100372.78;;;10.13;63.14
68525;BME280;55524;51.380;13.372;2023-04-28T07:01:05;100377.06;;;10.42;62.57
68525;BME280;55524;51.380;13.372;2023-04-28T07:03:31;100377.38;;;10.56;62.34
68525;BME280;55524;51.380;13.372;2023-04-28T07:05:58;100371.84;;;10.63;61.11
68525;BME280;55524;51.380;13.372;2023-04-28T07:08:24;100370.16;;;10.62;61.64
68525;BME280;55524;51.380;13.372;2023-04-28T07:10:50;100359.66;;;10.82;60.48
68525;BME280;55524;51.380;13.372;2023-04-28T07:13:17;100355.56;;;10.95;59.56
68525;BME280;55524;51.380;13.372;2023-04-28T07:15:43;100345.44;;;11.06;59.24
68525;BME280;55524;51.380;13.372;2023-04-28T07:18:09;100349.03;;;11.26;58.66
68525;BME280;55524;51.380;13.372;2023-04-28T07:20:36;100347.22;;;11.48;58.69
68525;BME280;55524;51.380;13.372;2023-04-28T07:23:02;100344.50;;;11.70;58.83
68525;BME280;55524;51.380;13.372;2023-04-28T07:25:28;100332.84;;;11.74;58.21
68525;BME280;55524;51.380;13.372;2023-04-28T07:27:55;100326.25;;;11.85;57.47
68525;BME280;55524;51.380;13.372;2023-04-28T07:30:22;100325.53;;;11.79;57.42
68525;BME280;55524;51.380;13.372;2023-04-28T07:32:48;100328.03;;;11.84;58.56
68525;BME280;55524;51.380;13.372;2023-04-28T07:35:15;100325.72;;;12.16;57.64
68525;BME280;55524;51.380;13.372;2023-04-28T07:37:41;100317.56;;;12.20;57.13
68525;BME280;55524;51.380;13.372;2023-04-28T07:40:08;100328.16;;;12.58;57.03
68525;BME280;55524;51.380;13.372;2023-04-28T07:42:34;100341.91;;;12.28;59.56
68525;BME280;55524;51.380;13.372;2023-04-28T07:45:00;100337.91;;;12.39;59.56
68525;BME280;55524;51.380;13.372;2023-04-28T07:47:27;100351.28;;;11.55;60.87
68525;BME280;55524;51.380;13.372;2023-04-28T07:49:54;100353.03;;;11.97;61.37
68525;BME280;55524;51.380;13.372;2023-04-28T07:52:20;100354.00;;;12.34;61.38
68525;BME280;55524;51.380;13.372;2023-04-28T07:54:46;100357.31;;;12.58;61.98
68525;BME280;55524;51.380;13.372;2023-04-28T07:57:13;100336.72;;;12.82;61.08
68525;BME280;55524;51.380;13.372;2023-04-28T07:59:39;100328.94;;;12.60;60.12
68525;BME280;55524;51.380;13.372;2023-04-28T11:47:59;100342.28;;;14.97;69.55
68525;BME280;55524;51.380;13.372;2023-04-28T11:50:37;100364.69;;;14.93;71.59
68525;BME280;55524;51.380;13.372;2023-04-28T11:53:04;100358.00;;;14.70;71.00
68525;BME280;55524;51.380;13.372;2023-04-28T11:55:30;100348.91;;;14.58;70.46
68525;BME280;55524;51.380;13.372;2023-04-28T11:58:18;100354.63;;;14.17;71.01
68525;BME280;55524;51.380;13.372;2023-04-28T12:01:09;100372.31;;;14.01;73.95
68525;BME280;55524;51.380;13.372;2023-04-28T12:03:46;100366.69;;;14.07;73.76
68525;BME280;55524;51.380;13.372;2023-04-28T12:06:19;100368.28;;;13.94;75.24
68525;BME280;55524;51.380;13.372;2023-04-28T12:08:45;100363.53;;;13.83;74.96
68525;BME280;55524;51.380;13.372;2023-04-28T12:11:13;100374.94;;;13.85;77.15
68525;BME280;55524;51.380;13.372;2023-04-28T12:13:40;100378.91;;;13.76;77.75
68525;BME280;55524;51.380;13.372;2023-04-28T12:16:07;100367.03;;;13.84;77.91
68525;BME280;55524;51.380;13.372;2023-04-28T12:18:34;100342.50;;;13.96;74.49
68525;BME280;55524;51.380;13.372;2023-04-28T12:21:02;100346.13;;;14.11;75.65
68525;BME280;55524;51.380;13.372;2023-04-28T12:23:30;100351.56;;;14.25;76.55
68525;BME280;55524;51.380;13.372;2023-04-28T12:25:57;100333.56;;;14.30;74.55
68525;BME280;55524;51.380;13.372;2023-04-28T12:28:34;100329.19;;;14.45;73.05
68525;BME280;55524;51.380;13.372;2023-04-28T12:31:06;100320.72;;;14.38;72.44
68525;BME280;55524;51.380;13.372;2023-04-28T12:33:36;100341.72;;;14.27;74.76
68525;BME280;55524;51.380;13.372;2023-04-28T12:36:03;100329.28;;;14.27;74.37
68525;BME280;55524;51.380;13.372;2023-04-28T12:38:31;100331.50;;;14.35;74.99
68525;BME280;55524;51.380;13.372;2023-04-28T12:41:00;100337.94;;;14.31;75.21
68525;BME280;55524;51.380;13.372;2023-04-28T12:43:26;100359.47;;;14.26;77.82
68525;BME280;55524;51.380;13.372;2023-04-28T12:45:54;100347.97;;;14.26;77.91
68525;BME280;55524;51.380;13.372;2023-04-28T12:48:22;100335.94;;;14.19;77.40
68525;BME280;55524;51.380;13.372;2023-04-28T12:50:52;100332.25;;;14.06;76.68
68525;BME280;55524;51.380;13.372;2023-04-28T12:53:18;100343.28;;;13.98;78.91
68525;BME280;55524;51.380;13.372;2023-04-28T12:55:44;100338.38;;;13.90;78.82
68525;BME280;55524;51.380;13.372;2023-04-28T12:58:11;100342.88;;;13.88;78.72
68525;BME280;55524;51.380;13.372;2023-04-28T13:00:37;100346.53;;;14.03;80.53
68525;BME280;55524;51.380;13.372;2023-04-28T13:03:04;100323.06;;;14.11;79.91
68525;BME280;55524;51.380;13.372;2023-04-28T13:05:31;100328.13;;;14.16;78.44
68525;BME280;55524;51.380;13.372;2023-04-28T13:07:58;100330.91;;;14.30;79.70
68525;BME280;55524;51.380;13.372;2023-04-28T13:10:24;100326.13;;;14.52;79.25
68525;BME280;55524;51.380;13.372;2023-04-28T13:12:51;100314.31;;;14.58;78.21
68525;BME280;55524;51.380;13.372;2023-04-28T13:15:18;100320.13;;;14.65;79.30
68525;BME280;55524;51.380;13.372;2023-04-28T13:17:44;100315.59;;;14.67;78.45
68525;BME280;55524;51.380;13.372;2023-04-28T13:20:11;100327.44;;;14.77;79.68
68525;BME280;55524;51.380;13.372;2023-04-28T13:22:38;100316.34;;;14.85;78.72
68525;BME280;55524;51.380;13.372;2023-04-28T13:25:04;100312.66;;;14.87;79.00
68525;BME280;55524;51.380;13.372;2023-04-28T13:27:31;100313.09;;;14.64;78.68
68525;BME280;55524;51.380;13.372;2023-04-28T13:29:58;100298.78;;;14.50;77.38
68525;BME280;55524;51.380;13.372;2023-04-28T13:32:25;100305.34;;;14.27;76.34
68525;BME280;55524;51.380;13.372;2023-04-28T13:34:52;100299.06;;;14.13;76.16
68525;BME280;55524;51.380;13.372;2023-04-28T13:37:19;100305.91;;;14.01;78.74
68525;BME280;55524;51.380;13.372;2023-04-28T13:39:45;100288.16;;;14.01;76.93
68525;BME280;55524;51.380;13.372;2023-04-28T13:42:12;100312.41;;;13.95;79.58
68525;BME280;55524;51.380;13.372;2023-04-28T13:44:38;100302.03;;;13.91;78.96
68525;BME280;55524;51.380;13.372;2023-04-28T13:47:04;100272.97;;;13.88;75.70
68525;BME280;55524;51.380;13.372;2023-04-28T13:49:34;100269.97;;;13.78;75.75
68525;BME280;55524;51.380;13.372;2023-04-28T13:52:02;100275.44;;;13.75;76.04
68525;BME280;55524;51.380;13.372;2023-04-28T13:54:28;100260.06;;;13.64;75.06
68525;BME280;55524;51.380;13.372;2023-04-28T13:56:55;100268.25;;;13.60;75.90
68525;BME280;55524;51.380;13.372;2023-04-28T13:59:22;100283.41;;;13.58;76.88
68525;BME280;55524;51.380;13.372;2023-04-28T14:01:48;100283.50;;;13.56;76.87
68525;BME280;55524;51.380;13.372;2023-04-28T14:04:14;100280.59;;;13.61;77.29
68525;BME280;55524;51.380;13.372;2023-04-28T14:06:44;100261.56;;;13.52;77.17
68525;BME280;55524;51.380;13.372;2023-04-28T14:09:11;100254.53;;;13.51;75.94
68525;BME280;55524;51.380;13.372;2023-04-28T14:11:37;100248.28;;;13.52;75.74
68525;BME280;55524;51.380;13.372;2023-04-28T14:14:04;100255.25;;;13.55;76.49
68525;BME280;55524;51.380;13.372;2023-04-28T14:16:30;100264.91;;;13.56;77.53
68525;BME280;55524;51.380;13.372;2023-04-28T14:18:57;100256.53;;;13.64;77.98
68525;BME280;55524;51.380;13.372;2023-04-28T14:21:24;100251.22;;;13.64;77.36
68525;BME280;55524;51.380;13.372;2023-04-28T14:23:51;100249.81;;;13.74;78.05
68525;BME280;55524;51.380;13.372;2023-04-28T14:26:17;100230.56;;;13.86;76.64
68525;BME280;55524;51.380;13.372;2023-04-28T14:28:44;100238.09;;;13.94;77.00
68525;BME280;55524;51.380;13.372;2023-04-28T14:31:11;100231.59;;;13.99;76.12
68525;BME280;55524;51.380;13.372;2023-04-28T14:33:37;100225.94;;;13.90;76.30
68525;BME280;55524;51.380;13.372;2023-04-28T14:36:04;100224.34;;;13.86;75.90
68525;BME280;55524;51.380;13.372;2023-04-28T14:38:30;100207.78;;;13.65;74.25
68525;BME280;55524;51.380;13.372;2023-04-28T14:40:57;100212.53;;;13.75;73.53
68525;BME280;55524;51.380;13.372;2023-04-28T14:43:23;100242.31;;;13.65;76.14
68525;BME280;55524;51.380;13.372;2023-04-28T14:45:49;100225.00;;;13.58;75.66
68525;BME280;55524;51.380;13.372;2023-04-28T14:48:16;100221.97;;;13.48;75.51
68525;BME280;55524;51.380;13.372;2023-04-28T14:50:43;100219.88;;;13.37;76.27
68525;BME280;55524;51.380;13.372;2023-04-28T14:53:09;100221.19;;;13.46;75.71
68525;BME280;55524;51.380;13.372;2023-04-28T14:55:36;100216.97;;;13.42;76.91
68525;BME280;55524;51.380;13.372;2023-04-28T14:58:02;100211.50;;;13.45;76.33
68525;BME280;55524;51.380;13.372;2023-04-28T15:00:29;100206.91;;;13.48;77.34
68525;BME280;55524;51.380;13.372;2023-04-28T15:02:55;100200.03;;;13.44;77.14
68525;BME280;55524;51.380;13.372;2023-04-28T15:05:22;100188.84;;;13.55;75.43
68525;BME280;55524;51.380;13.372;2023-04-28T15:07:48;100190.84;;;13.67;76.22
68525;BME280;55524;51.380;13.372;2023-04-28T15:10:15;100185.38;;;13.70;75.63
68525;BME280;55524;51.380;13.372;2023-04-28T15:12:41;100188.13;;;13.85;76.35
68525;BME280;55524;51.380;13.372;2023-04-28T15:15:08;100181.78;;;13.87;74.67
68525;BME280;55524;51.380;13.372;2023-04-28T15:17:34;100169.88;;;13.94;74.34
68525;BME280;55524;51.380;13.372;2023-04-28T15:20:01;100172.81;;;13.90;74.43
68525;BME280;55524;51.380;13.372;2023-04-28T15:22:27;100169.47;;;13.86;74.24
68525;BME280;55524;51.380;13.372;2023-04-28T15:24:53;100172.59;;;13.77;74.11
68525;BME280;55524;51.380;13.372;2023-04-28T15:27:20;100171.69;;;13.78;74.38
68525;BME280;55524;51.380;13.372;2023-04-28T15:29:48;100166.00;;;13.68;74.22
68525;BME280;55524;51.380;13.372;2023-04-28T15:32:15;100172.50;;;13.63;74.90
68525;BME280;55524;51.380;13.372;2023-04-28T15:34:41;100171.03;;;13.57;75.24
68525;BME280;55524;51.380;13.372;2023-04-28T15:40:08;100178.25;;;13.55;75.69
68525;BME280;55524;51.380;13.372;2023-04-28T15:42:35;100182.06;;;13.49;76.83
68525;BME280;55524;51.380;13.372;2023-04-28T15:45:03;100182.25;;;13.46;76.82
68525;BME280;55524;51.380;13.372;2023-04-28T15:47:29;100176.31;;;13.41;76.69
68525;BME280;55524;51.380;13.372;2023-04-28T15:49:57;100164.94;;;13.39;75.99
68525;BME280;55524;51.380;13.372;2023-04-28T15:52:26;100163.94;;;13.24;76.67
68525;BME280;55524;51.380;13.372;2023-04-28T15:54:55;100168.59;;;13.19;76.69
68525;BME280;55524;51.380;13.372;2023-04-28T15:57:22;100153.41;;;13.23;76.62
68525;BME280;55524;51.380;13.372;2023-04-28T15:59:49;100163.00;;;13.08;76.79
68525;BME280;55524;51.380;13.372;2023-04-28T16:02:16;100169.16;;;13.09;78.27
68525;BME280;55524;51.380;13.372;2023-04-28T16:04:43;100172.50;;;13.12;80.10
68525;BME280;55524;51.380;13.372;2023-04-28T16:07:09;100177.38;;;13.04;80.65
68525;BME280;55524;51.380;13.372;2023-04-28T16:09:35;100162.41;;;13.03;79.38
68525;BME280;55524;51.380;13.372;2023-04-28T16:12:02;100162.00;;;12.93;79.51
68525;BME280;55524;51.380;13.372;2023-04-28T16:14:29;100163.88;;;12.91;80.23
68525;BME280;55524;51.380;13.372;2023-04-28T16:16:55;100157.78;;;12.89;81.15
68525;BME280;55524;51.380;13.372;2023-04-28T16:19:21;100157.53;;;12.94;79.78
68525;BME280;55524;51.380;13.372;2023-04-28T16:21:50;100155.22;;;12.88;80.01
68525;BME280;55524;51.380;13.372;2023-04-28T16:24:16;100154.59;;;12.83;79.93
68525;BME280;55524;51.380;13.372;2023-04-28T16:26:43;100145.63;;;12.85;78.87
68525;BME280;55524;51.380;13.372;2023-04-28T16:29:09;100140.22;;;12.87;79.29
68525;BME280;55524;51.380;13.372;2023-04-28T16:31:35;100140.47;;;12.82;77.94